Flight Track Log - Related Links

Times and Time Zones

All times are in EDT time to prevent confusion due to time zone crossing. See the THY12 flight status page for this flight to view local times or setup timezone preferences in your user account.

Time Position Orientation Groundspeed Altitude Reporting Facility
EDT Latitude Longitude Course Direction KTS MPH feet Rate Location/Type
Wed 12:01:17 AM 40.6400 -73.7920 229° Southwest 2 2  Level FlightAware ADS-B
Wed 12:06:29 AM 40.6400 -73.7930 270° West 20 23 56 Level FlightAware ADS-B
Wed 12:07:10 AM 40.6380 -73.7920 159° South 24 28 84 Level FlightAware ADS-B
Wed 12:07:38 AM 40.6380 -73.7900 90° East 29 33 90 Level FlightAware ADS-B
Wed 12:08:05 AM 40.6370 -73.7890 143° Southeast 33 38 94 Level FlightAware ADS-B
Wed 12:08:33 AM 40.6360 -73.7860 114° Southeast 16 18 99 Level FlightAware ADS-B
Wed 12:09:01 AM 40.6350 -73.7840 123° Southeast 18 21 104 Level FlightAware ADS-B
Wed 12:09:17 AM 40.6340 -73.7830 143° Southeast 31 36 110 Level FlightAware ADS-B
Wed 12:09:45 AM 40.6330 -73.7800 114° Southeast 30 35 113 Level FlightAware ADS-B
Wed 12:10:13 AM 40.6330 -73.7790 90° East 26 30 121 Level FlightAware ADS-B
Wed 12:10:41 AM 40.6330 -73.7770 90° East 27 31 129 Level FlightAware ADS-B
Wed 12:11:33 AM 40.6310 -73.7730 123° Southeast 15 17 138 Level FlightAware ADS-B
Wed 12:11:59 AM 40.6300 -73.7710 123° Southeast 19 22 159 Level FlightAware ADS-B
Wed 12:14:00 AM 40.5956 -73.4078 123° Southeast  Level FlightAware Approximate
Wed 12:15:00 AM 40.5665 -73.2314 97° East  Level FlightAware Approximate
Wed 12:16:00 AM 40.5500 -73.0490 90° East  Level FlightAware Approximate
Wed 12:17:00 AM 40.5894 -72.8758 72° East  Level FlightAware Approximate
Wed 12:17:13 AM 40.6490 -73.8330 72° East 208 239 900  Level FlightAware ADS-B
Wed 12:17:32 AM 40.6410 -73.8540 243° Southwest 215 247 1,600 2,057 Climbing FlightAware ADS-B
Wed 12:17:48 AM 40.6260 -73.8660 211° Southwest 219 252 2,100 1,855 Climbing FlightAware ADS-B
Wed 12:18:27 AM 40.5740 -73.8630 177° South 231 266 3,300 1,647 Climbing FlightAware ADS-B
Wed 12:18:39 AM 40.5690 -73.8480 114° Southeast 237 273 3,500 1,222 Climbing FlightAware ADS-B
Wed 12:19:03 AM 40.5648 -73.8120 99° East 4,000 1,286 Climbing FlightAware ADS-B
Wed 12:19:21 AM 40.5647 -73.7828 90° East 266 306 4,400 1,765 Climbing FlightAware ADS-B
Wed 12:19:37 AM 40.5648 -73.7572 90° East 267 307 5,000 2,250 Climbing FlightAware ADS-B
Wed 12:19:53 AM 40.5648 -73.7317 90° East 270 311 5,600 2,129 Climbing FlightAware ADS-B
Wed 12:20:08 AM 40.5647 -73.7072 90° East 275 316 6,100 2,000 Climbing FlightAware ADS-B
Wed 12:20:23 AM 40.5645 -73.6813 91° East 278 320 6,600 2,129 Climbing FlightAware ADS-B
Wed 12:20:39 AM 40.5644 -73.6535 90° East 281 323 7,200 2,250 Climbing FlightAware ADS-B
Wed 12:20:55 AM 40.5643 -73.6273 90° East 281 323 7,800 2,182 Climbing FlightAware ADS-B
Wed 12:21:12 AM 40.5641 -73.5984 91° East 283 326 8,400 2,182 Climbing FlightAware ADS-B
Wed 12:21:28 AM 40.5639 -73.5709 91° East 283 326 9,000 2,129 Climbing FlightAware ADS-B
Wed 12:21:43 AM 40.5636 -73.5446 91° East 286 329 9,500 2,000 Climbing FlightAware ADS-B
Wed 12:21:58 AM 40.5636 -73.5173 90° East 289 333 10,000 1,304 Climbing FlightAware ADS-B
Wed 12:22:29 AM 40.5633 -73.4618 90° East 312 359 10,500 885 Climbing FlightAware ADS-B
Wed 12:22:59 AM 40.5626 -73.4013 91° East 342 394 10,900 1,000 Climbing FlightAware ADS-B
Wed 12:23:29 AM 40.5620 -73.3363 91° East 365 420 11,500 1,279 Climbing FlightAware ADS-B
Wed 12:24:00 AM 40.5614 -73.2647 91° East 389 448 12,200 1,571 Climbing FlightAware ADS-B
Wed 12:24:11 AM 40.5611 -73.2396 91° East 390 449 12,600 2,667 Climbing FlightAware ADS-B
Wed 12:24:18 AM 40.5619 -73.2231 86° East 388 447 13,000 2,211 Climbing FlightAware ADS-B
Wed 12:24:30 AM 40.5669 -73.1961 76° East 391 450 13,300 1,953 Climbing FlightAware ADS-B
Wed 12:25:01 AM 40.5883 -73.1259 68° East 403 464 14,400 2,164 Climbing FlightAware ADS-B
Wed 12:25:31 AM 40.6080 -73.0565 69° East 409 471 15,500 2,164 Climbing FlightAware ADS-B
Wed 12:26:02 AM 40.6301 -72.9842 68° East 416 479 16,600 2,164 Climbing FlightAware ADS-B
Wed 12:26:32 AM 40.6527 -72.9139 67° East 421 484 17,700 2,066 Climbing FlightAware ADS-B
Wed 12:27:03 AM 40.6758 -72.8415 67° East 428 493 18,700 2,000 Climbing FlightAware ADS-B
Wed 12:27:35 AM 40.7007 -72.7633 67° East 433 498 19,800 2,032 Climbing FlightAware ADS-B
Wed 12:28:05 AM 40.7243 -72.6885 67° East 442 509 20,800 1,967 Climbing FlightAware ADS-B
Wed 12:28:36 AM 40.7482 -72.6127 67° East 446 513 21,800 1,967 Climbing FlightAware ADS-B
Wed 12:29:06 AM 40.7725 -72.5356 67° East 451 519 22,800 1,770 Climbing FlightAware ADS-B
Wed 12:29:37 AM 40.7969 -72.4580 67° East 456 525 23,600 1,672 Climbing FlightAware ADS-B
Wed 12:30:07 AM 40.8218 -72.3787 67° East 464 534 24,500 1,574 Climbing FlightAware ADS-B
Wed 12:30:38 AM 40.8463 -72.2998 68° East 470 541 25,200 1,475 Climbing FlightAware ADS-B
Wed 12:31:08 AM 40.8714 -72.2191 68° East 476 548 26,000 1,574 Climbing FlightAware ADS-B
Wed 12:31:39 AM 40.8976 -72.1347 68° East 483 556 26,800 1,475 Climbing FlightAware ADS-B
Wed 12:32:09 AM 40.9234 -72.0516 68° East 489 563 27,500 1,377 Climbing FlightAware ADS-B
Wed 12:32:40 AM 40.9496 -71.9666 68° East 494 568 28,200 1,478 Climbing FlightAware ADS-B
Wed 12:33:18 AM 40.9828 -71.8588 68° East 498 573 29,200 1,478 Climbing FlightAware ADS-B
Wed 12:33:49 AM 41.0096 -71.7714 68° East 503 579 29,900 1,839 Climbing FlightAware ADS-B
Wed 12:34:20 AM 41.0360 -71.6844 68° East 493 567 31,100 2,164 Climbing FlightAware ADS-B
Wed 12:34:50 AM 41.0614 -71.6013 68° East 488 562 32,100 1,600 Climbing FlightAware ADS-B
Wed 12:35:20 AM 41.0868 -71.5175 68° East 490 564 32,700 900 Climbing FlightAware ADS-B
Wed 12:35:50 AM 41.1125 -71.4323 68° East 490 564 33,000 286 Climbing FlightAware ADS-B
Wed 12:36:23 AM 41.1403 -71.3403 68° East 491 565 33,000  Level FlightAware ADS-B
Wed 12:36:56 AM 41.1673 -71.2502 68° East 493 567 33,000  Level FlightAware ADS-B
Wed 12:37:35 AM 41.2005 -71.1391 68° East 492 566 33,000  Level FlightAware ADS-B
Wed 12:38:38 AM 41.2510 -70.9690 68° East 492 566 33,000  Level FlightAware ADS-B
Wed 12:39:18 AM 41.2850 -70.8550 68° East 490 564 33,000  Level FlightAware ADS-B
Wed 12:40:03 AM 41.3220 -70.7290 69° East 490 564 33,000  Level FlightAware ADS-B
Wed 12:40:43 AM 41.3550 -70.6180 68° East 491 565 33,000  Level FlightAware ADS-B
Wed 12:41:41 AM 41.3990 -70.4680 69° East 492 566 33,000  Level FlightAware ADS-B
Wed 12:42:17 AM 41.4250 -70.3820 68° East 492 566 33,000  Level FlightAware ADS-B
Wed 12:43:09 AM 41.4700 -70.2190 70° East 494 568 33,000  Level FlightAware ADS-B
Wed 12:43:48 AM 41.5040 -70.1020 69° East 495 570 33,000  Level FlightAware ADS-B
Wed 12:44:25 AM 41.5300 -70.0120 69° East 495 570 33,000  Level FlightAware ADS-B
Wed 12:45:03 AM 41.5660 -69.8860 69° East 491 565 33,000  Level FlightAware ADS-B
Wed 12:45:53 AM 41.6050 -69.7460 70° East 490 564 33,000  Level FlightAware ADS-B
Wed 12:46:42 AM 41.6430 -69.6090 70° East 489 563 33,000  Level FlightAware ADS-B
Wed 12:47:22 AM 41.6740 -69.5010 69° East 489 563 33,000  Level FlightAware ADS-B
Wed 12:48:15 AM 41.7150 -69.3550 69° East 490 564 33,000  Level FlightAware ADS-B
Wed 12:48:55 AM 41.7500 -69.2280 70° East 493 567 33,000  Level FlightAware ADS-B
Wed 12:49:47 AM 41.7890 -69.0870 70° East 493 567 33,000  Level FlightAware ADS-B
Wed 12:50:20 AM 41.8200 -68.9750 70° East 492 566 33,000  Level FlightAware ADS-B
Wed 12:51:07 AM 41.8540 -68.8510 70° East 492 566 33,000  Level FlightAware ADS-B
Wed 12:51:39 AM 41.8830 -68.7440 70° East 493 567 33,000  Level FlightAware ADS-B
Wed 12:52:24 AM 41.9180 -68.6170 70° East 494 568 33,000  Level FlightAware ADS-B
Wed 12:53:05 AM 41.9480 -68.5030 70° East 495 570 33,000  Level FlightAware ADS-B
Wed 12:53:44 AM 41.9780 -68.3920 70° East 495 570 33,000  Level FlightAware ADS-B
Wed 12:54:29 AM 42.0150 -68.2550 70° East 495 570 33,000  Level FlightAware ADS-B
Wed 12:55:08 AM 42.0390 -68.1580 72° East 495 570 33,000  Level FlightAware ADS-B
Wed 12:55:56 AM 42.0700 -68.0390 71° East 495 570 33,000  Level FlightAware ADS-B
Wed 12:56:39 AM 42.1150 -67.8740 70° East 493 567 33,000  Level FlightAware ADS-B
Wed 12:57:17 AM 42.1390 -67.7870 70° East 493 567 33,000  Level FlightAware ADS-B
Wed 12:58:17 AM 42.1790 -67.6390 70° East 493 567 33,000  Level FlightAware ADS-B
Wed 12:58:53 AM 42.2020 -67.5510 71° East 493 567 33,000  Level FlightAware ADS-B
Wed 12:59:41 AM 42.2340 -67.4320 70° East 493 567 33,000  Level FlightAware ADS-B
Wed 01:00:17 AM 42.2580 -67.3440 70° East 493 567 33,000  Level FlightAware ADS-B
Wed 01:00:53 AM 42.2820 -67.2550 70° East 493 567 33,000  Level FlightAware ADS-B
Wed 01:01:42 AM 42.3140 -67.1340 70° East 493 567 33,000  Level FlightAware ADS-B
Wed 01:02:18 AM 42.3380 -67.0460 70° East 493 567 33,000  Level FlightAware ADS-B
Wed 01:02:55 AM 42.3630 -66.9550 70° East 493 567 33,000  Level FlightAware ADS-B
Wed 01:03:31 AM 42.3870 -66.8660 70° East 493 567 33,000 1,091 Level FlightAware ADS-B
Wed 01:04:34 AM 42.4650 -66.5020 74° East 497 572 34,800 1,154 Climbing FlightAware ADS-B
Wed 01:05:15 AM 42.4980 -66.3680 71° East 492 566 35,000 141 Climbing FlightAware ADS-B
Wed 01:05:59 AM 42.5290 -66.2400 72° East 492 566 35,000  Level FlightAware ADS-B
Wed 01:06:34 AM 42.5550 -66.1360 71° East 496 571 35,000  Level FlightAware ADS-B
Wed 01:07:29 AM 42.5930 -65.9770 72° East 496 571 35,000  Level FlightAware ADS-B
Wed 01:08:12 AM 42.6190 -65.8690 72° East 497 572 35,000  Level FlightAware ADS-B
Wed 01:08:52 AM 42.6480 -65.7500 72° East 500 575 35,000  Level FlightAware ADS-B
Wed 01:09:28 AM 42.6700 -65.6580 72° East 500 575 35,000  Level FlightAware ADS-B
Wed 01:10:16 AM 42.6990 -65.5360 72° East 500 575 35,000  Level FlightAware ADS-B
Wed 01:10:52 AM 42.7210 -65.4440 72° East 500 575 35,000  Level FlightAware ADS-B
Wed 01:11:31 AM 42.7510 -65.3130 73° East 497 572 35,000  Level FlightAware ADS-B
Wed 01:12:08 AM 42.7860 -65.1650 72° East 495 570 35,000  Level FlightAware ADS-B
Wed 01:12:56 AM 42.8150 -65.0430 72° East 495 570 35,000  Level FlightAware ADS-B
Wed 01:13:34 AM 42.8480 -64.8960 73° East 35,000  Level FlightAware ADS-B
Wed 01:14:14 AM 42.8770 -64.7720 72° East 490 564 35,000  Level FlightAware ADS-B
Wed 01:14:54 AM 42.9050 -64.6500 73° East 492 566 35,000  Level FlightAware ADS-B
Wed 01:15:35 AM 42.9320 -64.5280 73° East 491 565 35,000  Level FlightAware ADS-B
Wed 01:16:15 AM 42.9590 -64.4090 73° East 490 564 35,000  Level FlightAware ADS-B
Wed 01:16:51 AM 42.9800 -64.3170 73° East 489 563 35,000  Level FlightAware ADS-B
Wed 01:17:34 AM 43.0110 -64.1770 73° East 484 557 35,000  Level FlightAware ADS-B
Wed 01:18:18 AM 43.0330 -64.0720 74° East 484 557 35,000  Level FlightAware ADS-B
Wed 01:18:51 AM 43.0590 -63.9630 72° East 483 556 35,000  Level FlightAware ADS-B
Wed 01:19:34 AM 43.0830 -63.8540 73° East 483 556 35,000  Level FlightAware ADS-B
Wed 01:20:22 AM 43.1150 -63.7070 73° East 484 557 35,000  Level FlightAware ADS-B
Wed 01:20:58 AM 43.1350 -63.6170 73° East 484 557 35,000  Level FlightAware ADS-B
Wed 01:21:46 AM 43.1620 -63.4970 73° East 484 557 35,000  Level FlightAware ADS-B
Wed 01:22:19 AM 43.1900 -63.3590 74° East 487 560 35,000  Level FlightAware ADS-B
Wed 01:23:07 AM 43.2200 -63.2180 74° East 487 560 35,000  Level FlightAware ADS-B
Wed 01:23:55 AM 43.2450 -63.0970 74° East 487 560 35,000  Level FlightAware ADS-B
Wed 01:24:28 AM 43.2667 -62.9500 74° East 490 564 35,000  Level Moncton Center
Wed 01:24:58 AM 43.2833 -62.8667 75° East 490 564 35,000  Level Gander Center
Wed 01:25:28 AM 43.2833 -62.7667 90° East 490 564 35,000  Level Moncton Center
Wed 01:26:28 AM 43.3333 -62.6000 68° East 490 564 35,000  Level Moncton Center
Wed 01:26:58 AM 43.3500 -62.5000 77° East 500 575 35,000  Level Gander Center
Wed 01:27:58 AM 43.3833 -62.3167 76° East 500 575 35,000  Level Gander Center
Wed 01:28:28 AM 43.4167 -62.2333 61° Northeast 500 575 35,000  Level Moncton Center
Wed 01:29:28 AM 43.4500 -62.0500 76° East 490 564 35,000  Level Moncton Center
Wed 01:34:41 AM 43.6480 -61.1020 76° East 35,000  Level FlightAware ADS-B
Wed 01:35:28 AM 43.6667 -60.9500 76° East 500 575 35,000  Level Moncton Center
Wed 01:40:39 AM 43.8580 -59.9750 76° East 509 586 35,000  Level FlightAware ADS-B
Wed 01:41:15 AM 43.8780 -59.8640 76° East 509 586 35,000  Level FlightAware ADS-B
Wed 01:42:09 AM 43.9060 -59.7090 76° East 507 583 35,000  Level FlightAware ADS-B
Wed 01:43:14 AM 43.9420 -59.5040 76° East 504 580 35,000  Level FlightAware ADS-B
Wed 01:43:50 AM 43.9590 -59.4080 76° East 504 580 35,000  Level FlightAware ADS-B
Wed 01:44:40 AM 43.9830 -59.2740 76° East 504 580 35,000  Level FlightAware ADS-B
Wed 01:45:20 AM 44.0110 -59.1070 77° East 500 575 35,000  Level FlightAware ADS-B
Wed 01:46:01 AM 44.0350 -58.9670 77° East 500 575 35,000  Level FlightAware ADS-B
Wed 01:46:41 AM 44.0560 -58.8450 76° East 500 575 35,000  Level FlightAware ADS-B
Wed 01:47:17 AM 44.0750 -58.7300 77° East 502 578 35,000  Level FlightAware ADS-B
Wed 01:48:01 AM 44.0980 -58.5920 77° East 502 578 35,000  Level FlightAware ADS-B
Wed 01:48:41 AM 44.1190 -58.4690 77° East 502 578 35,000  Level FlightAware ADS-B
Wed 01:49:26 AM 44.1420 -58.3250 77° East 502 578 35,000  Level FlightAware ADS-B
Wed 01:49:59 AM 44.1590 -58.2220 77° East 502 578 35,000  Level FlightAware ADS-B
Wed 01:50:42 AM 44.1810 -58.0870 77° East 501 577 35,000  Level FlightAware ADS-B
Wed 01:51:23 AM 44.2030 -57.9550 77° East 501 577 35,000  Level FlightAware ADS-B
Wed 01:52:07 AM 44.2240 -57.8180 78° East 502 578 35,000  Level FlightAware ADS-B
Wed 01:52:47 AM 44.2450 -57.6920 77° East 503 579 35,000  Level FlightAware ADS-B
Wed 01:53:45 AM 44.2730 -57.5100 78° East 505 581 35,000  Level FlightAware ADS-B
Wed 01:54:25 AM 44.2930 -57.3800 78° East 507 583 35,000  Level FlightAware ADS-B
Wed 01:55:09 AM 44.3150 -57.2400 78° East 508 585 35,000  Level FlightAware ADS-B
Wed 01:55:38 AM 44.3280 -57.1590 77° East 508 585 35,000  Level FlightAware ADS-B
Wed 01:56:21 AM 44.3500 -57.0100 78° East 509 586 35,000  Level FlightAware ADS-B
Wed 01:57:00 AM 44.3680 -56.9030 77° East 509 586 35,000  Level FlightAware ADS-B
Wed 01:57:43 AM 44.3900 -56.7450 79° East 515 593 35,000  Level FlightAware ADS-B
Wed 01:58:39 AM 44.4170 -56.5610 78° East 515 593 35,000  Level FlightAware ADS-B
Wed 01:59:33 AM 44.4410 -56.4050 78° East 515 593 35,000  Level FlightAware ADS-B
Wed 02:00:09 AM 44.4600 -56.2710 79° East 518 596 35,000  Level FlightAware ADS-B
Wed 02:01:01 AM 44.4820 -56.1260 78° East 518 596 35,000  Level FlightAware ADS-B
Wed 02:01:37 AM 44.4970 -56.0250 78° East 518 596 35,000  Level FlightAware ADS-B
Wed 02:02:14 AM 44.5130 -55.9220 78° East 518 596 35,000  Level FlightAware ADS-B
Wed 02:02:51 AM 44.5280 -55.8180 79° East 518 596 35,000  Level FlightAware ADS-B
Wed 02:03:39 AM 44.5480 -55.6840 78° East 518 596 35,000  Level FlightAware ADS-B
Wed 02:04:15 AM 44.5640 -55.5830 77° East 518 596 35,000  Level FlightAware ADS-B
Wed 02:04:51 AM 44.5790 -55.4830 78° East 518 596 35,000  Level FlightAware ADS-B
Wed 02:05:40 AM 44.6000 -55.3460 78° East 518 596 35,000  Level FlightAware ADS-B
Wed 02:06:16 AM 44.6150 -55.2450 78° East 518 596 35,000  Level FlightAware ADS-B
Wed 02:06:52 AM 44.6300 -55.1440 78° East 518 596 35,000  Level FlightAware ADS-B
Wed 02:07:41 AM 44.6510 -55.0070 78° East 518 596 35,000  Level FlightAware ADS-B
Wed 02:08:18 AM 44.6670 -54.9030 78° East 518 596 35,000  Level FlightAware ADS-B
Wed 02:08:54 AM 44.6820 -54.8020 78° East 518 596 35,000  Level FlightAware ADS-B
Wed 02:09:42 AM 44.7020 -54.6680 78° East 518 596 35,000  Level FlightAware ADS-B
Wed 02:10:28 AM 44.6833 -54.1000 78° East 550 633 35,000  Level Moncton Center
Wed 02:11:28 AM 44.6833 -53.8833 90° East 570 656 35,000  Level Moncton Center
Wed 02:12:28 AM 44.7167 -53.6500 79° East 550 633 35,000  Level Moncton Center
Wed 02:12:58 AM 44.7167 -53.5667 90° East 560 644 35,000  Level Gander Center
Wed 02:13:28 AM 44.7333 -53.4500 79° East 550 633 35,000  Level Moncton Center
Wed 02:15:58 AM 44.7667 -52.9167 85° East 560 644 35,000  Level Gander Center
Wed 02:16:58 AM 44.8000 -52.7000 78° East 550 633 35,000  Level Gander Center
Wed 02:17:28 AM 44.8000 -52.5833 90° East 550 633 35,000  Level Moncton Center
Wed 02:18:28 AM 44.8167 -52.3667 84° East 540 621 35,000  Level Moncton Center
Wed 02:19:28 AM 44.8333 -52.1500 84° East 540 621 35,000  Level Moncton Center
Wed 02:20:28 AM 44.8500 -51.9667 83° East 560 644 35,000  Level Moncton Center
Wed 02:20:58 AM 44.8667 -51.8333 80° East 550 633 35,000  Level Gander Center
Wed 02:21:58 AM 44.8833 -51.6167 84° East 560 644 35,000  Level Gander Center
Wed 02:22:28 AM 44.8667 -51.5000 101° East 560 644 35,000  Level Moncton Center
Wed 02:23:28 AM 44.9000 -51.2833 78° East 580 667 35,000  Level Moncton Center
Wed 02:23:58 AM 44.9000 -51.1667 90° East 550 633 35,000  Level Gander Center
Wed 02:24:58 AM 44.9167 -50.9500 84° East 580 667 35,000  Level Gander Center
Wed 02:25:58 AM 44.9333 -50.7167 84° East 580 667 35,000  Level Gander Center
Wed 02:26:58 AM 44.9333 -50.5000 90° East 570 656 35,000  Level Gander Center
Wed 02:27:58 AM 44.9500 -50.2833 84° East 570 656 35,000  Level Gander Center
Wed 02:28:58 AM 44.9833 -50.0667 78° East 570 656 35,000  Level Gander Center
Wed 02:29:58 AM 45.0167 -49.8667 77° East 560 644 35,000  Level Gander Center
Wed 02:30:58 AM 45.0833 -49.6667 65° Northeast 560 644 35,000  Level Gander Center
Wed 02:31:58 AM 45.1500 -49.4500 66° East 580 667 35,000  Level Gander Center
Wed 02:32:58 AM 45.2333 -49.2500 59° Northeast 560 644 35,000  Level Gander Center
Wed 02:33:58 AM 45.2833 -49.0667 69° East 580 667 35,000  Level Gander Center
Wed 02:34:58 AM 45.3667 -48.8667 59° Northeast 560 644 35,000 11 Level Gander Center
Wed 02:36:00 AM 45.4325 -48.6847 63° Northeast  Level FlightAware Approximate
Wed 02:43:00 AM 45.8663 -47.4377 64° Northeast  Level FlightAware Approximate
Wed 02:44:00 AM 45.9261 -47.2572 64° Northeast  Level FlightAware Approximate
Wed 02:45:00 AM 45.9855 -47.0764 65° Northeast  Level FlightAware Approximate
Wed 02:46:00 AM 46.0447 -46.8952 65° Northeast  Level FlightAware Approximate
Wed 02:47:00 AM 46.1036 -46.7135 65° Northeast  Level FlightAware Approximate
Wed 02:48:00 AM 46.1623 -46.5315 65° Northeast  Level FlightAware Approximate
Wed 02:49:00 AM 46.2206 -46.3491 65° Northeast  Level FlightAware Approximate
Wed 02:50:00 AM 46.2786 -46.1664 65° Northeast  Level FlightAware Approximate
Wed 02:51:00 AM 46.3364 -45.9832 65° Northeast  Level FlightAware Approximate
Wed 02:52:00 AM 46.3937 -45.7995 66° East  Level FlightAware Approximate
Wed 02:53:00 AM 46.4502 -45.6152 66° East  Level FlightAware Approximate
Wed 02:54:00 AM 46.5064 -45.4304 66° East  Level FlightAware Approximate
Wed 02:55:00 AM 46.5623 -45.2453 66° East  Level FlightAware Approximate
Wed 02:56:00 AM 46.6179 -45.0598 66° East  Level FlightAware Approximate
Wed 02:57:00 AM 46.6732 -44.8739 67° East  Level FlightAware Approximate
Wed 02:58:00 AM 46.7282 -44.6876 67° East  Level FlightAware Approximate
Wed 02:59:00 AM 46.7829 -44.5009 67° East  Level FlightAware Approximate
Wed 03:00:00 AM 46.8373 -44.3139 67° East  Level FlightAware Approximate
Wed 03:01:00 AM 46.8914 -44.1265 67° East  Level FlightAware Approximate
Wed 03:02:00 AM 46.9452 -43.9387 67° East  Level FlightAware Approximate
Wed 03:03:00 AM 46.9987 -43.7505 67° East  Level FlightAware Approximate
Wed 03:04:00 AM 47.0518 -43.5620 67° East  Level FlightAware Approximate
Wed 03:05:00 AM 47.1047 -43.3731 68° East  Level FlightAware Approximate
Wed 03:06:00 AM 47.1572 -43.1838 68° East  Level FlightAware Approximate
Wed 03:07:00 AM 47.2094 -42.9941 68° East  Level FlightAware Approximate
Wed 03:08:00 AM 47.2614 -42.8041 68° East  Level FlightAware Approximate
Wed 03:09:00 AM 47.3130 -42.6137 68° East  Level FlightAware Approximate
Wed 03:10:00 AM 47.3655 -42.4236 68° East  Level FlightAware Approximate
Wed 03:11:00 AM 47.4177 -42.2332 68° East  Level FlightAware Approximate
Wed 03:12:00 AM 47.4697 -42.0425 68° East  Level FlightAware Approximate
Wed 03:13:00 AM 47.5213 -41.8513 68° East  Level FlightAware Approximate
Wed 03:14:00 AM 47.5726 -41.6598 68° East  Level FlightAware Approximate
Wed 03:15:00 AM 47.6236 -41.4679 68° East  Level FlightAware Approximate
Wed 03:16:00 AM 47.6743 -41.2757 69° East  Level FlightAware Approximate
Wed 03:17:00 AM 47.7247 -41.0830 69° East  Level FlightAware Approximate
Wed 03:18:00 AM 47.7747 -40.8900 69° East  Level FlightAware Approximate
Wed 03:19:00 AM 47.8244 -40.6966 69° East  Level FlightAware Approximate
Wed 03:20:00 AM 47.8738 -40.5029 69° East  Level FlightAware Approximate
Wed 03:21:00 AM 47.9228 -40.3088 69° East  Level FlightAware Approximate
Wed 03:22:00 AM 47.9716 -40.1143 69° East  Level FlightAware Approximate
Wed 03:23:00 AM 48.0203 -39.9196 69° East  Level FlightAware Approximate
Wed 03:24:00 AM 48.0691 -39.7248 69° East  Level FlightAware Approximate
Wed 03:25:00 AM 48.1176 -39.5296 70° East  Level FlightAware Approximate
Wed 03:26:00 AM 48.1658 -39.3341 70° East  Level FlightAware Approximate
Wed 03:27:00 AM 48.2137 -39.1382 70° East  Level FlightAware Approximate
Wed 03:28:00 AM 48.2612 -38.9420 70° East  Level FlightAware Approximate
Wed 03:29:00 AM 48.3084 -38.7453 70° East  Level FlightAware Approximate
Wed 03:30:00 AM 48.3552 -38.5484 70° East  Level FlightAware Approximate
Wed 03:31:00 AM 48.4017 -38.3510 70° East  Level FlightAware Approximate
Wed 03:32:00 AM 48.4479 -38.1533 71° East  Level FlightAware Approximate
Wed 03:33:00 AM 48.4937 -37.9552 71° East  Level FlightAware Approximate
Wed 03:34:00 AM 48.5392 -37.7568 71° East  Level FlightAware Approximate
Wed 03:35:00 AM 48.5844 -37.5580 71° East  Level FlightAware Approximate
Wed 03:36:00 AM 48.6292 -37.3589 71° East  Level FlightAware Approximate
Wed 03:37:00 AM 48.6736 -37.1594 71° East  Level FlightAware Approximate
Wed 03:38:00 AM 48.7178 -36.9596 71° East  Level FlightAware Approximate
Wed 03:39:00 AM 48.7615 -36.7594 72° East  Level FlightAware Approximate
Wed 03:40:00 AM 48.8049 -36.5588 72° East  Level FlightAware Approximate
Wed 03:41:00 AM 48.8480 -36.3580 72° East  Level FlightAware Approximate
Wed 03:42:00 AM 48.8908 -36.1567 72° East  Level FlightAware Approximate
Wed 03:43:00 AM 48.9331 -35.9552 72° East  Level FlightAware Approximate
Wed 03:44:00 AM 48.9751 -35.7533 72° East  Level FlightAware Approximate
Wed 03:45:00 AM 49.0168 -35.5510 72° East  Level FlightAware Approximate
Wed 03:46:00 AM 49.0581 -35.3484 73° East  Level FlightAware Approximate
Wed 03:47:00 AM 49.0991 -35.1455 73° East  Level FlightAware Approximate
Wed 03:48:00 AM 49.1397 -34.9423 73° East  Level FlightAware Approximate
Wed 03:49:00 AM 49.1799 -34.7387 73° East  Level FlightAware Approximate
Wed 03:50:00 AM 49.2198 -34.5348 73° East  Level FlightAware Approximate
Wed 03:51:00 AM 49.2594 -34.3305 73° East  Level FlightAware Approximate
Wed 03:52:00 AM 49.2985 -34.1259 74° East  Level FlightAware Approximate
Wed 03:53:00 AM 49.3373 -33.9211 74° East  Level FlightAware Approximate
Wed 03:54:00 AM 49.3758 -33.7158 74° East  Level FlightAware Approximate
Wed 03:55:00 AM 49.4139 -33.5103 74° East  Level FlightAware Approximate
Wed 03:56:00 AM 49.4516 -33.3045 74° East  Level FlightAware Approximate
Wed 03:57:00 AM 49.4889 -33.0983 74° East  Level FlightAware Approximate
Wed 03:58:00 AM 49.5259 -32.8918 75° East  Level FlightAware Approximate
Wed 03:59:00 AM 49.5625 -32.6850 75° East  Level FlightAware Approximate
Wed 04:00:00 AM 49.5988 -32.4779 75° East  Level FlightAware Approximate
Wed 04:01:00 AM 49.6347 -32.2705 75° East  Level FlightAware Approximate
Wed 04:02:00 AM 49.6702 -32.0628 75° East  Level FlightAware Approximate
Wed 04:03:00 AM 49.7053 -31.8548 75° East  Level FlightAware Approximate
Wed 04:04:00 AM 49.7400 -31.6465 75° East  Level FlightAware Approximate
Wed 04:05:00 AM 49.7744 -31.4379 76° East  Level FlightAware Approximate
Wed 04:06:00 AM 49.8084 -31.2290 76° East  Level FlightAware Approximate
Wed 04:07:00 AM 49.8421 -31.0198 76° East  Level FlightAware Approximate
Wed 04:08:00 AM 49.8753 -30.8103 76° East  Level FlightAware Approximate
Wed 04:09:00 AM 49.9082 -30.6005 76° East  Level FlightAware Approximate
Wed 04:10:00 AM 49.9407 -30.3904 76° East  Level FlightAware Approximate
Wed 04:11:00 AM 49.9728 -30.1801 77° East  Level FlightAware Approximate
Wed 04:12:00 AM 50.0013 -29.9687 86° East  Level FlightAware Approximate
Wed 04:13:00 AM 50.0104 -29.7528 86° East  Level FlightAware Approximate
Wed 04:14:00 AM 50.0190 -29.5368 86° East  Level FlightAware Approximate
Wed 04:15:00 AM 50.0273 -29.3207 87° East  Level FlightAware Approximate
Wed 04:16:00 AM 50.0351 -29.1045 87° East  Level FlightAware Approximate
Wed 04:17:00 AM 50.0425 -28.8883 87° East  Level FlightAware Approximate
Wed 04:18:00 AM 50.0496 -28.6719 87° East  Level FlightAware Approximate
Wed 04:19:00 AM 50.0562 -28.4556 87° East  Level FlightAware Approximate
Wed 04:20:00 AM 50.0624 -28.2391 87° East  Level FlightAware Approximate
Wed 04:21:00 AM 50.0683 -28.0227 88° East  Level FlightAware Approximate
Wed 04:22:00 AM 50.0737 -27.8061 88° East  Level FlightAware Approximate
Wed 04:23:00 AM 50.0787 -27.5896 88° East  Level FlightAware Approximate
Wed 04:24:00 AM 50.0833 -27.3729 88° East  Level FlightAware Approximate
Wed 04:25:00 AM 50.0876 -27.1563 88° East  Level FlightAware Approximate
Wed 04:26:00 AM 50.0914 -26.9396 88° East  Level FlightAware Approximate
Wed 04:27:00 AM 50.0948 -26.7228 89° East  Level FlightAware Approximate
Wed 04:28:00 AM 50.0978 -26.5061 89° East  Level FlightAware Approximate
Wed 04:29:00 AM 50.1004 -26.2893 89° East  Level FlightAware Approximate
Wed 04:30:00 AM 50.1026 -26.0725 89° East  Level FlightAware Approximate
Wed 04:31:00 AM 50.1044 -25.8556 89° East  Level FlightAware Approximate
Wed 04:32:00 AM 50.1058 -25.6388 89° East  Level FlightAware Approximate
Wed 04:33:00 AM 50.1068 -25.4220 90° East  Level FlightAware Approximate
Wed 04:34:00 AM 50.1073 -25.2051 90° East  Level FlightAware Approximate
Wed 04:35:00 AM 50.1075 -24.9882 90° East  Level FlightAware Approximate
Wed 04:36:00 AM 50.1073 -24.7714 90° East  Level FlightAware Approximate
Wed 04:37:00 AM 50.1067 -24.5545 90° East  Level FlightAware Approximate
Wed 04:38:00 AM 50.1057 -24.3377 90° East  Level FlightAware Approximate
Wed 04:39:00 AM 50.1042 -24.1208 91° East  Level FlightAware Approximate
Wed 04:40:00 AM 50.1024 -23.9040 91° East  Level FlightAware Approximate
Wed 04:41:00 AM 50.1001 -23.6872 91° East  Level FlightAware Approximate
Wed 04:42:00 AM 50.0975 -23.4704 91° East  Level FlightAware Approximate
Wed 04:43:00 AM 50.0944 -23.2536 91° East  Level FlightAware Approximate
Wed 04:44:00 AM 50.0910 -23.0369 91° East  Level FlightAware Approximate
Wed 04:45:00 AM 50.0871 -22.8202 92° East  Level FlightAware Approximate
Wed 04:46:00 AM 50.0829 -22.6035 92° East  Level FlightAware Approximate
Wed 04:47:00 AM 50.0782 -22.3869 92° East  Level FlightAware Approximate
Wed 04:48:00 AM 50.0731 -22.1703 92° East  Level FlightAware Approximate
Wed 04:49:00 AM 50.0677 -21.9538 92° East  Level FlightAware Approximate
Wed 04:50:00 AM 50.0618 -21.7373 92° East  Level FlightAware Approximate
Wed 04:51:00 AM 50.0555 -21.5209 93° East  Level FlightAware Approximate
Wed 04:52:00 AM 50.0488 -21.3046 93° East  Level FlightAware Approximate
Wed 04:53:00 AM 50.0418 -21.0883 93° East  Level FlightAware Approximate
Wed 04:54:00 AM 50.0343 -20.8720 93° East  Level FlightAware Approximate
Wed 04:55:00 AM 50.0264 -20.6558 93° East  Level FlightAware Approximate
Wed 04:56:00 AM 50.0181 -20.4398 93° East  Level FlightAware Approximate
Wed 04:57:00 AM 50.0094 -20.2237 93° East  Level FlightAware Approximate
Wed 04:58:00 AM 50.0003 -20.0078 94° East  Level FlightAware Approximate
Wed 04:59:00 AM 49.9932 -19.7917 93° East  Level FlightAware Approximate
Wed 05:00:00 AM 49.9858 -19.5757 93° East  Level FlightAware Approximate
Wed 05:01:00 AM 49.9780 -19.3597 93° East  Level FlightAware Approximate
Wed 05:02:00 AM 49.9698 -19.1438 93° East  Level FlightAware Approximate
Wed 05:03:00 AM 49.9612 -18.9280 93° East  Level FlightAware Approximate
Wed 05:04:00 AM 49.9521 -18.7123 94° East  Level FlightAware Approximate
Wed 05:05:00 AM 49.9427 -18.4967 94° East  Level FlightAware Approximate
Wed 05:06:00 AM 49.9329 -18.2811 94° East  Level FlightAware Approximate
Wed 05:07:00 AM 49.9227 -18.0656 94° East  Level FlightAware Approximate
Wed 05:08:00 AM 49.9120 -17.8502 94° East  Level FlightAware Approximate
Wed 05:09:00 AM 49.9010 -17.6350 94° East  Level FlightAware Approximate
Wed 05:10:00 AM 49.8896 -17.4198 95° East  Level FlightAware Approximate
Wed 05:11:00 AM 49.8778 -17.2047 95° East  Level FlightAware Approximate
Wed 05:12:00 AM 49.8656 -16.9897 95° East  Level FlightAware Approximate
Wed 05:13:00 AM 49.8530 -16.7749 95° East  Level FlightAware Approximate
Wed 05:14:00 AM 49.8400 -16.5601 95° East  Level FlightAware Approximate
Wed 05:15:00 AM 49.8266 -16.3455 95° East  Level FlightAware Approximate
Wed 05:16:00 AM 49.8128 -16.1310 96° East  Level FlightAware Approximate
Wed 05:17:00 AM 49.7986 -15.9166 96° East  Level FlightAware Approximate
Wed 05:18:00 AM 49.7840 -15.7023 96° East  Level FlightAware Approximate
Wed 05:19:00 AM 49.7690 -15.4882 96° East  Level FlightAware Approximate
Wed 05:20:00 AM 49.7536 -15.2742 96° East  Level FlightAware Approximate
Wed 05:21:00 AM 49.7379 -15.0604 96° East  Level FlightAware Approximate
Wed 05:22:00 AM 49.7215 -14.8467 97° East  Level FlightAware Approximate
Wed 05:23:00 AM 49.7046 -14.6332 97° East  Level FlightAware Approximate
Wed 05:24:00 AM 49.6873 -14.4199 97° East  Level FlightAware Approximate
Wed 05:25:00 AM 49.6697 -14.2066 97° East  Level FlightAware Approximate
Wed 05:26:00 AM 49.6516 -13.9936 97° East  Level FlightAware Approximate
Wed 05:27:00 AM 49.6332 -13.7807 98° East  Level FlightAware Approximate
Wed 05:28:00 AM 49.6143 -13.5680 98° East  Level FlightAware Approximate
Wed 05:29:00 AM 49.5951 -13.3554 98° East  Level FlightAware Approximate
Wed 05:30:00 AM 49.5755 -13.1430 98° East  Level FlightAware Approximate
Wed 05:31:00 AM 49.5555 -12.9308 98° East  Level FlightAware Approximate
Wed 05:32:00 AM 49.5352 -12.7188 98° East  Level FlightAware Approximate
Wed 05:33:00 AM 49.5154 -12.5067 98° East  Level FlightAware Approximate
Wed 05:33:51 AM 49.6340 -9.9840 98° East 490 564 37,000  Level FlightAware ADS-B
Wed 05:34:00 AM 49.4953 -12.2947 98° East  Level FlightAware Approximate
Wed 05:34:33 AM 49.6200 -9.8360 98° East 488 562 37,000  Level FlightAware ADS-B
Wed 05:35:13 AM 49.6070 -9.6990 98° East 489 563 37,000  Level FlightAware ADS-B
Wed 05:35:55 AM 49.5930 -9.5590 99° East 490 564 37,000  Level FlightAware ADS-B
Wed 05:36:42 AM 49.5790 -9.4130 98° East 490 564 37,000  Level FlightAware ADS-B
Wed 05:37:15 AM 49.5650 -9.2830 99° East 488 562 37,000  Level FlightAware ADS-B
Wed 05:38:05 AM 49.5480 -9.1110 99° East 490 564 37,000  Level FlightAware ADS-B
Wed 05:38:41 AM 49.5340 -8.9850 100° East 493 567 37,000  Level FlightAware ADS-B
Wed 05:39:21 AM 49.5200 -8.8460 99° East 493 567 37,000  Level FlightAware ADS-B
Wed 05:39:57 AM 49.5070 -8.7230 99° East 493 567 37,000  Level FlightAware ADS-B
Wed 05:40:37 AM 49.4920 -8.5860 100° East 493 567 37,000  Level FlightAware ADS-B
Wed 05:41:21 AM 49.4750 -8.4320 100° East 493 567 37,000  Level FlightAware ADS-B
Wed 05:41:59 AM 49.4610 -8.3020 99° East 492 566 37,000  Level FlightAware ADS-B
Wed 05:42:46 AM 49.4430 -8.1410 100° East 490 564 37,000  Level FlightAware ADS-B
Wed 05:43:25 AM 49.4290 -8.0140 100° East 489 563 37,000  Level FlightAware ADS-B
Wed 05:44:07 AM 49.4120 -7.8690 100° East 489 563 37,000  Level FlightAware ADS-B
Wed 05:44:50 AM 49.3950 -7.7200 100° East 491 565 37,000  Level FlightAware ADS-B
Wed 05:46:33 AM 49.3760 -7.4380 96° East 492 566 37,000  Level FlightAware ADS-B
Wed 05:47:09 AM 49.3720 -7.2820 92° East 492 566 37,000  Level FlightAware ADS-B
Wed 05:47:55 AM 49.3650 -7.0780 93° East 487 560 37,000  Level FlightAware ADS-B
Wed 05:48:36 AM 49.3600 -6.9330 93° East 485 558 37,000  Level FlightAware ADS-B
Wed 05:49:15 AM 49.3550 -6.8030 93° East 485 558 37,000  Level FlightAware ADS-B
Wed 05:49:51 AM 49.3490 -6.6790 94° East 485 558 37,000  Level FlightAware ADS-B
Wed 05:50:33 AM 49.3430 -6.5340 94° East 486 559 37,000  Level FlightAware ADS-B
Wed 05:51:17 AM 49.3370 -6.3840 93° East 484 557 37,000  Level FlightAware ADS-B
Wed 05:51:57 AM 49.3300 -6.2470 94° East 484 557 37,000  Level FlightAware ADS-B
Wed 05:52:37 AM 49.3240 -6.1090 94° East 486 559 37,000  Level FlightAware ADS-B
Wed 05:53:23 AM 49.3160 -5.9510 94° East 486 559 37,000  Level FlightAware ADS-B
Wed 05:54:03 AM 49.3090 -5.8150 94° East 486 559 37,000  Level FlightAware ADS-B
Wed 05:54:40 AM 49.3030 -5.6880 94° East 484 557 37,000  Level FlightAware ADS-B
Wed 05:55:21 AM 49.2960 -5.5520 94° East 482 555 37,000  Level FlightAware ADS-B
Wed 05:56:05 AM 49.2880 -5.4020 95° East 483 556 37,000  Level FlightAware ADS-B
Wed 05:56:41 AM 49.2810 -5.2820 95° East 482 555 37,000  Level FlightAware ADS-B
Wed 05:57:21 AM 49.2740 -5.1420 94° East 483 556 37,000  Level FlightAware ADS-B
Wed 05:58:01 AM 49.2660 -5.0060 95° East 484 557 37,000  Level FlightAware ADS-B
Wed 05:58:45 AM 49.2570 -4.8550 95° East 483 556 37,000  Level FlightAware ADS-B
Wed 05:59:25 AM 49.2490 -4.7190 95° East 486 559 37,000  Level FlightAware ADS-B
Wed 06:00:07 AM 49.2410 -4.5820 95° East 487 560 37,000  Level FlightAware ADS-B
Wed 06:00:49 AM 49.2320 -4.4330 95° East 487 560 37,000  Level FlightAware ADS-B
Wed 06:01:33 AM 49.2220 -4.2810 96° East 487 560 37,000  Level FlightAware ADS-B
Wed 06:02:13 AM 49.2130 -4.1450 96° East 488 562 37,000  Level FlightAware ADS-B
Wed 06:02:57 AM 49.2040 -3.9980 95° East 487 560 37,000  Level FlightAware ADS-B
Wed 06:03:37 AM 49.1940 -3.8590 96° East 482 555 37,000  Level FlightAware ADS-B
Wed 06:04:21 AM 49.1840 -3.7120 96° East 482 555 37,000  Level FlightAware ADS-B
Wed 06:05:01 AM 49.1750 -3.5760 96° East 482 555 37,000  Level FlightAware ADS-B
Wed 06:05:43 AM 49.1650 -3.4330 96° East 483 556 37,000  Level FlightAware ADS-B
Wed 06:06:25 AM 49.1550 -3.2900 96° East 483 556 37,000  Level FlightAware ADS-B
Wed 06:07:11 AM 49.1430 -3.1340 97° East 482 555 37,000  Level FlightAware ADS-B
Wed 06:07:51 AM 49.1330 -2.9990 96° East 484 557 37,000  Level FlightAware ADS-B
Wed 06:08:27 AM 49.1240 -2.8790 96° East 483 556 37,000  Level FlightAware ADS-B
Wed 06:09:07 AM 49.1140 -2.7450 96° East 483 556 37,000  Level FlightAware ADS-B
Wed 06:09:49 AM 49.1030 -2.6030 97° East 483 556 37,000  Level FlightAware ADS-B
Wed 06:10:31 AM 49.0910 -2.4580 97° East 484 557 37,000  Level FlightAware ADS-B
Wed 06:11:43 AM 49.0720 -2.2170 97° East 484 557 37,000  Level FlightAware ADS-B
Wed 06:12:21 AM 49.0610 -2.0920 98° East 484 557 37,000  Level FlightAware ADS-B
Wed 06:13:07 AM 49.0480 -1.9350 97° East 483 556 37,000  Level FlightAware ADS-B
Wed 06:13:47 AM 49.0360 -1.7970 98° East 486 559 37,000  Level FlightAware ADS-B
Wed 06:14:31 AM 49.0240 -1.6510 97° East 485 558 37,000  Level FlightAware ADS-B
Wed 06:14:55 AM 49.0170 -1.5700 97° East 486 559 37,000  Level FlightAware ADS-B
Wed 06:17:05 AM 48.9840 -1.2000 98° East 487 560 37,000  Level FlightAware ADS-B
Wed 06:17:52 AM 48.9660 -1.0120 98° East 487 560 37,000  Level FlightAware ADS-B
Wed 06:18:37 AM 48.9470 -0.8160 98° East 487 560 37,000  Level FlightAware ADS-B
Wed 06:19:15 AM 48.9360 -0.6870 97° East 486 559 37,000  Level FlightAware ADS-B
Wed 06:19:51 AM 48.9240 -0.5650 98° East 485 558 37,000  Level FlightAware ADS-B
Wed 06:20:31 AM 48.9120 -0.4310 98° East 485 558 37,000  Level FlightAware ADS-B
Wed 06:21:11 AM 48.9000 -0.2970 98° East 484 557 37,000  Level FlightAware ADS-B
Wed 06:21:59 AM 48.8860 -0.1400 98° East 486 559 37,000  Level FlightAware ADS-B
Wed 06:22:25 AM 48.8780 -0.0470 97° East 488 562 37,000  Level FlightAware ADS-B
Wed 06:23:07 AM 48.8650 0.0960 98° East 488 562 37,000  Level FlightAware ADS-B
Wed 06:23:51 AM 48.8510 0.2450 98° East 488 562 37,000  Level FlightAware ADS-B
Wed 06:24:33 AM 48.8380 0.3880 98° East 489 563 37,000  Level FlightAware ADS-B
Wed 06:25:11 AM 48.8240 0.5120 100° East 490 564 37,000  Level FlightAware ADS-B
Wed 06:25:57 AM 48.8060 0.6700 100° East 490 564 37,000  Level FlightAware ADS-B
Wed 06:26:41 AM 48.7920 0.8150 98° East 490 564 37,000  Level FlightAware ADS-B
Wed 06:27:21 AM 48.7820 0.9540 96° East 490 564 37,000  Level FlightAware ADS-B
Wed 06:28:01 AM 48.7720 1.0920 96° East 490 564 37,000  Level FlightAware ADS-B
Wed 06:28:45 AM 48.7620 1.2400 96° East 492 566 37,000  Level FlightAware ADS-B
Wed 06:29:29 AM 48.7500 1.3900 97° East 491 565 37,000  Level FlightAware ADS-B
Wed 06:30:07 AM 48.7400 1.5200 97° East 488 562 37,000  Level FlightAware ADS-B
Wed 06:30:51 AM 48.7290 1.6690 96° East 487 560 37,000  Level FlightAware ADS-B
Wed 06:31:34 AM 48.7190 1.8030 96° East 488 562 37,000  Level FlightAware ADS-B
Wed 06:32:11 AM 48.7100 1.9190 97° East 489 563 37,000  Level FlightAware ADS-B
Wed 06:32:57 AM 48.6980 2.0940 96° East 489 563 37,000  Level FlightAware ADS-B
Wed 06:33:39 AM 48.6890 2.2340 96° East 489 563 37,000  Level FlightAware ADS-B
Wed 06:34:19 AM 48.6800 2.3630 96° East 489 563 37,000  Level FlightAware ADS-B
Wed 06:35:04 AM 48.6690 2.5240 96° East 488 562 37,000  Level FlightAware ADS-B
Wed 06:35:34 AM 48.6620 2.6280 96° East 488 562 37,000  Level FlightAware ADS-B
Wed 06:36:14 AM 48.6530 2.7640 96° East 489 563 37,000  Level FlightAware ADS-B
Wed 06:37:14 AM 48.6280 2.9610 101° East 489 563 37,000  Level FlightAware ADS-B
Wed 06:37:53 AM 48.6100 3.0930 102° East 487 560 37,000  Level FlightAware ADS-B
Wed 06:38:40 AM 48.5880 3.2410 103° East 487 560 37,000  Level FlightAware ADS-B
Wed 06:39:22 AM 48.5650 3.3930 103° East 489 563 37,000  Level FlightAware ADS-B
Wed 06:40:02 AM 48.5460 3.5250 102° East 491 565 37,000  Level FlightAware ADS-B
Wed 06:40:44 AM 48.5250 3.6570 103° East 487 560 37,000  Level FlightAware ADS-B
Wed 06:41:25 AM 48.5040 3.7970 103° East 486 559 37,000  Level FlightAware ADS-B
Wed 06:42:11 AM 48.4800 3.9530 103° East 486 559 37,000  Level FlightAware ADS-B
Wed 06:42:52 AM 48.4600 4.0860 103° East 487 560 37,000  Level FlightAware ADS-B
Wed 06:43:35 AM 48.4380 4.2270 103° East 488 562 37,000  Level FlightAware ADS-B
Wed 06:44:17 AM 48.4150 4.3680 104° East 487 560 37,000  Level FlightAware ADS-B
Wed 06:44:58 AM 48.3950 4.4980 103° East 487 560 37,000  Level FlightAware ADS-B
Wed 06:45:50 AM 48.3700 4.6490 104° East 488 562 37,000  Level FlightAware ADS-B
Wed 06:46:36 AM 48.3430 4.8210 103° East 487 560 37,000  Level FlightAware ADS-B
Wed 06:47:13 AM 48.3260 4.9250 104° East 488 562 37,000  Level FlightAware ADS-B
Wed 06:48:08 AM 48.2930 5.1200 104° East 488 562 37,000  Level FlightAware ADS-B
Wed 06:48:55 AM 48.2670 5.2800 104° East 486 559 37,000  Level FlightAware ADS-B
Wed 06:49:37 AM 48.2450 5.4170 104° East 484 557 37,000  Level FlightAware ADS-B
Wed 06:50:15 AM 48.2260 5.5360 103° East 483 556 37,000  Level FlightAware ADS-B
Wed 06:51:01 AM 48.2020 5.6880 103° East 484 557 37,000  Level FlightAware ADS-B
Wed 06:51:46 AM 48.1790 5.8320 103° East 484 557 37,000  Level FlightAware ADS-B
Wed 06:52:27 AM 48.1580 5.9630 103° East 486 559 37,000  Level FlightAware ADS-B
Wed 06:53:06 AM 48.1370 6.0910 104° East 488 562 37,000  Level FlightAware ADS-B
Wed 06:53:47 AM 48.1150 6.2220 104° East 487 560 37,000  Level FlightAware ADS-B
Wed 06:54:31 AM 48.0920 6.3680 103° East 483 556 37,000  Level FlightAware ADS-B
Wed 06:55:12 AM 48.0700 6.5030 104° East 482 555 37,000  Level FlightAware ADS-B
Wed 06:55:59 AM 48.0450 6.6550 104° East 481 554 37,000  Level FlightAware ADS-B
Wed 06:56:38 AM 48.0250 6.7770 104° East 482 555 37,000  Level FlightAware ADS-B
Wed 06:57:15 AM 48.0110 6.8660 103° East 483 556 37,000  Level FlightAware ADS-B
Wed 06:57:59 AM 47.9850 7.0230 104° East 482 555 37,000  Level FlightAware ADS-B
Wed 06:58:43 AM 47.9600 7.1840 103° East 481 554 37,000  Level FlightAware ADS-B
Wed 06:59:52 AM 47.9160 7.4010 107° East 472 543 37,000  Level FlightAware ADS-B
Wed 07:00:50 AM 47.8790 7.5330 113° Southeast 471 542 37,000  Level FlightAware ADS-B
Wed 07:02:53 AM 47.7850 7.8800 107° East 470 541 37,000  Level FlightAware ADS-B
Wed 07:03:00 AM 47.7919 7.9628 107° East  Level Estimated
Wed 07:03:32 AM 47.7440 8.0420 111° Southeast 474 545 37,000  Level FlightAware ADS-B
Wed 07:04:11 AM 47.7250 8.1560 104° East 474 545 37,000  Level FlightAware ADS-B
Wed 07:04:55 AM 47.6960 8.3090 106° East 474 545 37,000  Level FlightAware ADS-B
Wed 07:05:33 AM 47.6770 8.4080 106° East 474 545 37,000  Level FlightAware ADS-B
Wed 07:06:15 AM 47.6470 8.5730 105° East 476 548 37,000  Level FlightAware ADS-B
Wed 07:06:59 AM 47.6210 8.7150 105° East 477 549 37,000  Level FlightAware ADS-B
Wed 07:07:42 AM 47.5960 8.8510 105° East 477 549 37,000  Level FlightAware ADS-B
Wed 07:08:19 AM 47.5760 8.9620 105° East 477 549 37,000  Level FlightAware ADS-B
Wed 07:09:14 AM 47.5450 9.1320 105° East 479 551 37,000  Level FlightAware ADS-B
Wed 07:09:59 AM 47.5200 9.2680 105° East 478 550 37,000  Level FlightAware ADS-B
Wed 07:10:44 AM 47.4940 9.4030 106° East 478 550 37,000  Level FlightAware ADS-B
Wed 07:12:24 AM 47.4410 9.6840 105° East 479 551 37,000  Level FlightAware ADS-B
Wed 07:13:19 AM 47.4010 9.8940 106° East 479 551 37,000  Level FlightAware ADS-B
Wed 07:14:00 AM 47.3750 10.0310 106° East 480 552 37,000  Level FlightAware ADS-B
Wed 07:14:49 AM 47.3450 10.1830 106° East 479 551 37,000  Level FlightAware ADS-B
Wed 07:15:34 AM 47.3190 10.3310 104° East 479 551 37,000  Level FlightAware ADS-B
Wed 07:16:15 AM 47.3010 10.4580 102° East 485 558 37,000  Level FlightAware ADS-B
Wed 07:16:59 AM 47.2810 10.6040 101° East 486 559 37,000  Level FlightAware ADS-B
Wed 07:17:39 AM 47.2640 10.7280 101° East 486 559 37,000  Level FlightAware ADS-B
Wed 07:18:19 AM 47.2450 10.8630 102° East 486 559 37,000  Level FlightAware ADS-B
Wed 07:18:59 AM 47.2270 10.9890 102° East 485 558 37,000  Level FlightAware ADS-B
Wed 07:19:45 AM 47.2060 11.1330 102° East 485 558 37,000  Level FlightAware ADS-B
Wed 07:20:24 AM 47.1870 11.2660 102° East 485 558 37,000  Level FlightAware ADS-B
Wed 07:21:09 AM 47.1670 11.4070 102° East 486 559 37,000  Level FlightAware ADS-B
Wed 07:21:45 AM 47.1500 11.5180 103° East 485 558 37,000  Level FlightAware ADS-B
Wed 07:22:34 AM 47.1280 11.6720 102° East 485 558 37,000  Level FlightAware ADS-B
Wed 07:23:16 AM 47.0970 11.8080 108° East 481 554 37,000  Level FlightAware ADS-B
Wed 07:23:59 AM 47.0550 11.9390 115° Southeast 481 554 37,000  Level FlightAware ADS-B
Wed 07:24:39 AM 47.0160 12.0550 116° Southeast 482 555 37,000  Level FlightAware ADS-B
Wed 07:25:24 AM 46.9720 12.1890 116° Southeast 482 555 37,000  Level FlightAware ADS-B
Wed 07:26:04 AM 46.9310 12.3090 117° Southeast 482 555 37,000  Level FlightAware ADS-B
Wed 07:26:36 AM 46.9010 12.3990 116° Southeast 482 555 37,000  Level FlightAware ADS-B
Wed 07:27:18 AM 46.8600 12.5190 117° Southeast 483 556 37,000  Level FlightAware ADS-B
Wed 07:28:04 AM 46.8140 12.6550 116° Southeast 481 554 37,000  Level FlightAware ADS-B
Wed 07:28:39 AM 46.7800 12.7540 117° Southeast 482 555 37,000  Level FlightAware ADS-B
Wed 07:29:19 AM 46.7400 12.8710 116° Southeast 481 554 37,000  Level FlightAware ADS-B
Wed 07:29:59 AM 46.6980 12.9920 117° Southeast 481 554 37,000  Level FlightAware ADS-B
Wed 07:30:44 AM 46.6530 13.1230 117° Southeast 481 554 37,000  Level FlightAware ADS-B
Wed 07:31:23 AM 46.6230 13.2400 110° East 489 563 37,000  Level FlightAware ADS-B
Wed 07:32:09 AM 46.5880 13.3830 110° East 489 563 37,000  Level FlightAware ADS-B
Wed 07:32:49 AM 46.5600 13.5080 108° East 491 565 37,000  Level FlightAware ADS-B
Wed 07:33:26 AM 46.5330 13.6300 108° East 492 566 37,000  Level FlightAware ADS-B
Wed 07:34:10 AM 46.5020 13.7670 108° East 493 567 37,000  Level FlightAware ADS-B
Wed 07:34:50 AM 46.4740 13.8890 108° East 494 568 37,000  Level FlightAware ADS-B
Wed 07:35:26 AM 46.4500 13.9950 108° East 496 571 37,000  Level FlightAware ADS-B
Wed 07:36:06 AM 46.4190 14.1310 108° East 496 571 37,000  Level FlightAware ADS-B
Wed 07:36:48 AM 46.3930 14.2460 108° East 497 572 37,000  Level FlightAware ADS-B
Wed 07:37:30 AM 46.3590 14.3900 109° East 496 571 37,000  Level FlightAware ADS-B
Wed 07:38:14 AM 46.3280 14.5240 108° East 499 574 37,000  Level FlightAware ADS-B
Wed 07:39:11 AM 46.2840 14.7110 109° East 499 574 37,000  Level FlightAware ADS-B
Wed 07:39:48 AM 46.2590 14.8190 108° East 499 574 37,000  Level FlightAware ADS-B
Wed 07:40:30 AM 46.2280 14.9500 109° East 499 574 37,000  Level FlightAware ADS-B
Wed 07:41:12 AM 46.1940 15.0920 109° East 498 573 37,000  Level FlightAware ADS-B
Wed 07:42:21 AM 46.1460 15.2940 109° East 498 573 37,000  Level FlightAware ADS-B
Wed 07:43:04 AM 46.1100 15.4410 109° East 497 572 37,000  Level FlightAware ADS-B
Wed 07:44:02 AM 46.0690 15.6070 110° East 494 568 37,000  Level FlightAware ADS-B
Wed 07:44:41 AM 46.0350 15.7370 111° Southeast 493 567 37,000  Level FlightAware ADS-B
Wed 07:45:22 AM 46.0040 15.8580 110° East 493 567 37,000  Level FlightAware ADS-B
Wed 07:46:03 AM 45.9700 15.9890 110° East 494 568 37,000  Level FlightAware ADS-B
Wed 07:46:52 AM 45.9330 16.1330 110° East 494 568 37,000  Level FlightAware ADS-B
Wed 07:47:24 AM 45.9090 16.2230 111° Southeast 497 572 37,000  Level FlightAware ADS-B
Wed 07:48:06 AM 45.8700 16.3730 110° East 498 573 37,000  Level FlightAware ADS-B
Wed 07:48:51 AM 45.8330 16.5110 111° Southeast 498 573 37,000  Level FlightAware ADS-B
Wed 07:49:22 AM 45.8080 16.6040 111° Southeast 498 573 37,000  Level FlightAware ADS-B
Wed 07:50:06 AM 45.7740 16.7330 111° Southeast 499 574 37,000  Level FlightAware ADS-B
Wed 07:50:47 AM 45.7390 16.8640 111° Southeast 499 574 37,000  Level FlightAware ADS-B
Wed 07:51:25 AM 45.7060 16.9860 111° Southeast 500 575 37,000  Level FlightAware ADS-B
Wed 07:52:10 AM 45.6680 17.1250 111° Southeast 501 577 37,000  Level FlightAware ADS-B
Wed 07:52:54 AM 45.6300 17.2650 111° Southeast 501 577 37,000  Level FlightAware ADS-B
Wed 07:53:35 AM 45.5960 17.3870 112° Southeast 498 573 37,000  Level FlightAware ADS-B
Wed 07:54:15 AM 45.5620 17.5110 111° Southeast 499 574 37,000  Level FlightAware ADS-B
Wed 07:54:51 AM 45.5320 17.6200 111° Southeast 499 574 37,000  Level FlightAware ADS-B
Wed 07:55:30 AM 45.4980 17.7410 112° Southeast 498 573 37,000  Level FlightAware ADS-B
Wed 07:56:25 AM 45.4510 17.9110 111° Southeast 498 573 37,000  Level FlightAware ADS-B
Wed 07:57:00 AM 45.4210 18.0170 112° Southeast 499 574 37,000  Level FlightAware ADS-B
Wed 07:57:45 AM 45.3820 18.1550 112° Southeast 499 574 37,000  Level FlightAware ADS-B
Wed 07:58:25 AM 45.3500 18.2650 112° Southeast 499 574 37,000  Level FlightAware ADS-B
Wed 07:59:05 AM 45.3130 18.3960 112° Southeast 499 574 37,000  Level FlightAware ADS-B
Wed 07:59:45 AM 45.2770 18.5210 112° Southeast 499 574 37,000  Level FlightAware ADS-B
Wed 08:00:30 AM 45.2370 18.6580 112° Southeast 502 578 37,000  Level FlightAware ADS-B
Wed 08:01:10 AM 45.2020 18.7800 112° Southeast 501 577 37,000  Level FlightAware ADS-B
Wed 08:01:55 AM 45.1620 18.9150 113° Southeast 501 577 37,000  Level FlightAware ADS-B
Wed 08:02:35 AM 45.1260 19.0370 113° Southeast 500 575 37,000  Level FlightAware ADS-B
Wed 08:03:15 AM 45.0890 19.1550 114° Southeast 501 577 37,000  Level FlightAware ADS-B
Wed 08:04:00 AM 45.0380 19.2850 119° Southeast 498 573 37,000  Level FlightAware ADS-B
Wed 08:04:39 AM 44.9930 19.3970 120° Southeast 498 573 37,000  Level FlightAware ADS-B
Wed 08:05:20 AM 44.9450 19.5120 120° Southeast 498 573 37,000  Level FlightAware ADS-B
Wed 08:06:05 AM 44.8930 19.6380 120° Southeast 499 574 37,000  Level FlightAware ADS-B
Wed 08:06:45 AM 44.8470 19.7500 120° Southeast 499 574 37,000  Level FlightAware ADS-B
Wed 08:07:29 AM 44.7950 19.8750 120° Southeast 504 580 37,000  Level FlightAware ADS-B
Wed 08:08:10 AM 44.7460 19.9910 121° Southeast 503 579 37,000  Level FlightAware ADS-B
Wed 08:08:50 AM 44.6990 20.1040 120° Southeast 503 579 37,000  Level FlightAware ADS-B
Wed 08:09:35 AM 44.6470 20.2280 120° Southeast 504 580 37,000  Level FlightAware ADS-B
Wed 08:10:12 AM 44.6010 20.3360 121° Southeast 504 580 37,000  Level FlightAware ADS-B
Wed 08:10:51 AM 44.5560 20.4420 121° Southeast 505 581 37,000  Level FlightAware ADS-B
Wed 08:13:00 AM 44.4179 20.8138 117° Southeast  Level FlightAware Approximate
Wed 08:13:11 AM 44.4030 20.8000 117° Southeast 505 581 37,000  Level FlightAware ADS-B
Wed 08:13:52 AM 44.3360 20.9530 121° Southeast 504 580 37,000  Level FlightAware ADS-B
Wed 08:14:26 AM 44.2970 21.0450 121° Southeast 504 580 37,000  Level FlightAware ADS-B
Wed 08:17:00 AM 44.1318 21.4865 117° Southeast  Level FlightAware Approximate
Wed 08:17:24 AM 44.1090 21.4790 117° Southeast 504 580 37,000  Level FlightAware ADS-B
Wed 08:18:20 AM 44.0330 21.6470 122° Southeast 502 578 37,000  Level FlightAware ADS-B
Wed 08:19:46 AM 43.9240 21.8900 122° Southeast 501 577 37,000  Level FlightAware ADS-B
Wed 08:20:31 AM 43.8610 22.0300 122° Southeast 500 575 37,000  Level FlightAware ADS-B
Wed 08:21:10 AM 43.8050 22.1560 122° Southeast 500 575 37,000  Level FlightAware ADS-B
Wed 08:21:52 AM 43.7540 22.2680 122° Southeast 499 574 37,000  Level FlightAware ADS-B
Wed 08:22:34 AM 43.7020 22.3810 122° Southeast 498 573 37,000  Level FlightAware ADS-B
Wed 08:23:12 AM 43.6550 22.4850 122° Southeast 497 572 37,000  Level FlightAware ADS-B
Wed 08:24:00 AM 43.5960 22.6120 123° Southeast 496 571 37,000  Level FlightAware ADS-B
Wed 08:24:36 AM 43.5520 22.7080 122° Southeast 495 570 37,000  Level FlightAware ADS-B
Wed 08:25:24 AM 43.4930 22.8350 123° Southeast 495 570 37,000  Level FlightAware ADS-B
Wed 08:26:04 AM 43.4440 22.9400 123° Southeast 497 572 37,000  Level FlightAware ADS-B
Wed 08:26:40 AM 43.3980 23.0390 123° Southeast 497 572 37,000  Level FlightAware ADS-B
Wed 08:27:24 AM 43.3440 23.1530 123° Southeast 496 571 37,000  Level FlightAware ADS-B
Wed 08:28:04 AM 43.2940 23.2580 123° Southeast 494 568 37,000  Level FlightAware ADS-B
Wed 08:28:40 AM 43.2500 23.3530 122° Southeast 493 567 37,000  Level FlightAware ADS-B
Wed 08:29:20 AM 43.2000 23.4580 123° Southeast 492 566 37,000  Level FlightAware ADS-B
Wed 08:30:04 AM 43.1450 23.5740 123° Southeast 493 567 37,000  Level FlightAware ADS-B
Wed 08:30:44 AM 43.0960 23.6760 123° Southeast 492 566 37,000  Level FlightAware ADS-B
Wed 08:31:28 AM 43.0410 23.7890 124° Southeast 490 564 37,000  Level FlightAware ADS-B
Wed 08:32:25 AM 42.9730 23.9340 123° Southeast 486 559 37,000  Level FlightAware ADS-B
Wed 08:33:00 AM 42.9320 24.0300 120° Southeast 485 558 37,000  Level FlightAware ADS-B
Wed 08:33:37 AM 42.8960 24.1190 119° Southeast 484 557 37,000  Level FlightAware ADS-B
Wed 08:34:25 AM 42.8440 24.2500 118° Southeast 485 558 37,000  Level FlightAware ADS-B
Wed 08:35:05 AM 42.8030 24.3530 118° Southeast 486 559 37,000  Level FlightAware ADS-B
Wed 08:35:48 AM 42.7550 24.4710 119° Southeast 491 565 37,000  Level FlightAware ADS-B
Wed 08:36:33 AM 42.7060 24.5930 119° Southeast 490 564 37,000  Level FlightAware ADS-B
Wed 08:37:13 AM 42.6630 24.6990 119° Southeast 492 566 37,000  Level FlightAware ADS-B
Wed 08:37:50 AM 42.6210 24.8010 119° Southeast 492 566 37,000  Level FlightAware ADS-B
Wed 08:38:31 AM 42.5790 24.9020 119° Southeast 491 565 37,000  Level FlightAware ADS-B
Wed 08:39:13 AM 42.5300 25.0210 119° Southeast 490 564 37,000  Level FlightAware ADS-B
Wed 08:39:55 AM 42.4820 25.1350 120° Southeast 490 564 37,000  Level FlightAware ADS-B
Wed 08:40:39 AM 42.4340 25.2520 119° Southeast 491 565 37,000  Level FlightAware ADS-B
Wed 08:41:21 AM 42.3880 25.3620 119° Southeast 490 564 37,000  Level FlightAware ADS-B
Wed 08:42:07 AM 42.3390 25.4780 120° Southeast 489 563 37,000  Level FlightAware ADS-B
Wed 08:42:43 AM 42.2960 25.5810 119° Southeast 489 563 37,000  Level FlightAware ADS-B
Wed 08:43:25 AM 42.2480 25.6940 120° Southeast 489 563 37,000 -74 Level FlightAware ADS-B
Wed 08:44:04 AM 42.2080 25.7870 120° Southeast 489 563 36,900 -635 Descending FlightAware ADS-B
Wed 08:44:50 AM 42.1500 25.9230 120° Southeast 496 571 36,100 -1,000 Descending FlightAware ADS-B
Wed 08:45:28 AM 42.1100 26.0180 120° Southeast 484 557 35,500 -1,443 Descending FlightAware ADS-B
Wed 08:46:09 AM 42.0630 26.1260 120° Southeast 493 567 34,200 -1,451 Descending FlightAware ADS-B
Wed 08:46:59 AM 42.0030 26.2660 120° Southeast 493 567 33,300 -1,146 Descending FlightAware ADS-B
Wed 08:47:38 AM 41.9600 26.3660 120° Southeast 491 565 32,500 -1,171 Descending FlightAware ADS-B
Wed 08:48:21 AM 41.9130 26.4740 120° Southeast 494 568 31,700 -1,214 Descending FlightAware ADS-B
Wed 08:49:02 AM 41.8630 26.5830 122° Southeast 495 570 30,800 -1,247 Descending FlightAware ADS-B
Wed 08:49:38 AM 41.8120 26.6840 124° Southeast 492 566 30,100 -857 Descending FlightAware ADS-B
Wed 08:50:19 AM 41.7660 26.7740 124° Southeast 488 562 29,700 -741 Descending FlightAware ADS-B
Wed 08:50:59 AM 41.7100 26.8810 125° Southeast 479 551 29,100 -1,426 Descending FlightAware ADS-B
Wed 08:52:00 AM 41.6370 27.0220 125° Southeast 474 545 27,300 -1,909 Descending FlightAware ADS-B
Wed 08:52:49 AM 41.5760 27.1380 125° Southeast 458 527 25,600 -2,096 Descending FlightAware ADS-B
Wed 08:53:23 AM 41.5350 27.2180 124° Southeast 444 511 24,400 -2,211 Descending FlightAware ADS-B
Wed 08:54:05 AM 41.4840 27.3140 125° Southeast 437 503 22,800 -2,268 Descending FlightAware ADS-B
Wed 08:54:45 AM 41.4410 27.3960 125° Southeast 434 499 21,300 -2,100 Descending FlightAware ADS-B
Wed 08:55:25 AM 41.3930 27.4850 126° Southeast 420 483 20,000 -1,980 Descending FlightAware ADS-B
Wed 08:56:25 AM 41.3260 27.6110 125° Southeast 415 478 18,000 -1,932 Descending FlightAware ADS-B
Wed 08:57:23 AM 41.2690 27.7160 126° Southeast 395 455 16,200 -1,742 Descending FlightAware ADS-B
Wed 08:57:58 AM 41.2300 27.7880 126° Southeast 348 400 15,300 -1,360 Descending FlightAware ADS-B
Wed 08:58:38 AM 41.1940 27.8550 126° Southeast 315 362 14,500 -1,171 Descending FlightAware ADS-B
Wed 08:59:20 AM 41.1620 27.9140 126° Southeast 304 350 13,700 -1,341 Descending FlightAware ADS-B
Wed 09:00:03 AM 41.1250 27.9850 125° Southeast 295 339 12,600 -1,291 Descending FlightAware ADS-B
Wed 09:00:39 AM 41.1000 28.0340 124° Southeast 293 337 12,000 -1,114 Descending FlightAware ADS-B
Wed 09:01:13 AM 41.0660 28.0720 140° Southeast 286 329 11,300 -1,483 Descending FlightAware ADS-B
Wed 09:02:08 AM 40.9970 28.1140 155° Southeast 284 327 9,800 -1,875 Descending FlightAware ADS-B
Wed 09:02:33 AM 40.9670 28.1320 156° South 286 329 8,800 -1,846 Descending FlightAware ADS-B
Wed 09:03:13 AM 40.9180 28.1640 154° Southeast 259 298 7,800 -1,745 Descending FlightAware ADS-B
Wed 09:03:28 AM 40.9060 28.1850 127° Southeast 267 307 7,200 -2,100 Descending FlightAware ADS-B
Wed 09:03:33 AM 40.9040 28.1930 108° East 275 316 7,100 -1,200 Descending FlightAware ADS-B
Wed 09:04:18 AM 40.9050 28.2630 89° East 263 303 6,200 -750 Descending FlightAware ADS-B
Wed 09:04:45 AM 40.9070 28.3000 86° East 263 303 6,200 -1,537 Level FlightAware ADS-B
Wed 09:05:40 AM 40.9080 28.3860 89° East 236 272 4,100 -2,000 Descending FlightAware ADS-B
Wed 09:06:00 AM 40.9060 28.4140 95° East 234 269 3,700 -592 Descending FlightAware ADS-B
Wed 09:06:51 AM 40.9030 28.4730 94° East 234 269 3,400 -456 Descending FlightAware ADS-B
Wed 09:08:13 AM 40.8950 28.5940 95° East 2,700 -505 Descending FlightAware ADS-B
Wed 09:08:38 AM 40.8930 28.6230 95° East 199 229 2,500 -185 Descending FlightAware ADS-B
Wed 09:09:18 AM 40.8990 28.6660 80° East 169 194 2,500 -419 Level FlightAware ADS-B
Wed 09:10:04 AM 40.9180 28.7070 58° Northeast 163 188 1,900 -776 Descending FlightAware ADS-B
Wed 09:10:43 AM 40.9320 28.7380 59° Northeast 144 166 1,400 -769 Descending FlightAware ADS-B
Wed 09:13:00 AM 40.9667 28.8000 128° Southeast  Level FlightAware Approximate
Wed 09:14:00 AM 40.9769 28.8211 128° Southeast  Level Estimated
Wed 09:15:00 AM 40.9769 28.8211 128° Southeast  Level Estimated
Wed 09:16:00 AM 40.9769 28.8211 128° Southeast  Level Estimated
Wed 09:17:00 AM 40.9769 28.8211 128° Southeast  Level Estimated
Wed 09:18:00 AM 40.9769 28.8211 128° Southeast  Level Estimated
Wed 09:19:00 AM 40.9769 28.8211 128° Southeast  Level Estimated
Wed 09:20:00 AM 40.9769 28.8211 128° Southeast  Level Estimated
Wed 09:21:00 AM 40.9769 28.8211 128° Southeast  Level Estimated
Wed 09:24:00 AM 40.9769 28.8211 128° Southeast  Level Estimated

Login

Don't have an account? Register now (free) for customized features, flight alerts, and more!